sensor_id;sensor_type;location;lat;lon;timestamp;P1;durP1;ratioP1;P2;durP2;ratioP2
9138;SDS011;4604;48.616;9.548;2023-04-07T00:02:09;9.43;;;5.10;;
9138;SDS011;4604;48.616;9.548;2023-04-07T00:04:36;8.00;;;5.10;;
9138;SDS011;4604;48.616;9.548;2023-04-07T00:07:03;8.10;;;4.80;;
9138;SDS011;4604;48.616;9.548;2023-04-07T00:09:31;8.57;;;5.30;;
9138;SDS011;4604;48.616;9.548;2023-04-07T00:11:57;9.50;;;5.90;;
9138;SDS011;4604;48.616;9.548;2023-04-07T00:14:25;9.63;;;5.77;;
9138;SDS011;4604;48.616;9.548;2023-04-07T00:16:52;9.57;;;6.07;;
9138;SDS011;4604;48.616;9.548;2023-04-07T00:19:19;9.63;;;5.67;;
9138;SDS011;4604;48.616;9.548;2023-04-07T00:21:45;9.60;;;5.53;;
9138;SDS011;4604;48.616;9.548;2023-04-07T00:24:16;8.43;;;5.40;;
9138;SDS011;4604;48.616;9.548;2023-04-07T00:26:44;9.83;;;5.30;;
9138;SDS011;4604;48.616;9.548;2023-04-07T00:29:10;8.87;;;5.60;;
9138;SDS011;4604;48.616;9.548;2023-04-07T00:31:37;9.07;;;5.67;;
9138;SDS011;4604;48.616;9.548;2023-04-07T00:34:03;7.87;;;4.97;;
9138;SDS011;4604;48.616;9.548;2023-04-07T00:36:30;9.67;;;5.57;;
9138;SDS011;4604;48.616;9.548;2023-04-07T00:38:57;8.27;;;5.20;;
9138;SDS011;4604;48.616;9.548;2023-04-07T00:41:24;7.87;;;5.00;;
9138;SDS011;4604;48.616;9.548;2023-04-07T00:43:52;9.37;;;5.77;;
9138;SDS011;4604;48.616;9.548;2023-04-07T00:46:18;7.27;;;4.70;;
9138;SDS011;4604;48.616;9.548;2023-04-07T00:48:47;9.67;;;5.30;;
9138;SDS011;4604;48.616;9.548;2023-04-07T00:51:14;8.37;;;5.43;;
9138;SDS011;4604;48.616;9.548;2023-04-07T00:53:41;9.60;;;5.90;;
9138;SDS011;4604;48.616;9.548;2023-04-07T00:56:08;9.33;;;5.57;;
9138;SDS011;4604;48.616;9.548;2023-04-07T00:58:35;8.30;;;5.30;;
9138;SDS011;4604;48.616;9.548;2023-04-07T01:01:04;8.47;;;5.47;;
9138;SDS011;4604;48.616;9.548;2023-04-07T01:03:35;9.37;;;6.03;;
9138;SDS011;4604;48.616;9.548;2023-04-07T01:06:10;7.67;;;5.43;;
9138;SDS011;4604;48.616;9.548;2023-04-07T01:08:41;8.40;;;5.60;;
9138;SDS011;4604;48.616;9.548;2023-04-07T01:11:16;9.00;;;5.43;;
9138;SDS011;4604;48.616;9.548;2023-04-07T01:13:49;8.77;;;5.53;;
9138;SDS011;4604;48.616;9.548;2023-04-07T01:16:21;8.40;;;5.70;;
9138;SDS011;4604;48.616;9.548;2023-04-07T01:18:51;10.40;;;6.13;;
9138;SDS011;4604;48.616;9.548;2023-04-07T01:21:20;10.20;;;5.70;;
9138;SDS011;4604;48.616;9.548;2023-04-07T01:23:54;8.70;;;5.80;;
9138;SDS011;4604;48.616;9.548;2023-04-07T01:26:42;10.30;;;5.73;;
9138;SDS011;4604;48.616;9.548;2023-04-07T01:31:59;9.60;;;6.10;;
9138;SDS011;4604;48.616;9.548;2023-04-07T01:34:29;10.53;;;5.73;;
9138;SDS011;4604;48.616;9.548;2023-04-07T01:36:58;8.57;;;5.73;;
9138;SDS011;4604;48.616;9.548;2023-04-07T01:39:27;8.67;;;6.00;;
9138;SDS011;4604;48.616;9.548;2023-04-07T01:41:54;10.27;;;5.90;;
9138;SDS011;4604;48.616;9.548;2023-04-07T01:44:22;9.33;;;5.87;;
9138;SDS011;4604;48.616;9.548;2023-04-07T01:46:53;10.60;;;6.37;;
9138;SDS011;4604;48.616;9.548;2023-04-07T01:49:20;11.77;;;6.53;;
9138;SDS011;4604;48.616;9.548;2023-04-07T01:51:48;12.27;;;6.93;;
9138;SDS011;4604;48.616;9.548;2023-04-07T01:54:16;9.53;;;6.27;;
9138;SDS011;4604;48.616;9.548;2023-04-07T01:56:43;10.33;;;6.43;;
9138;SDS011;4604;48.616;9.548;2023-04-07T01:59:10;8.30;;;6.10;;
9138;SDS011;4604;48.616;9.548;2023-04-07T02:01:37;10.27;;;6.67;;
9138;SDS011;4604;48.616;9.548;2023-04-07T02:04:06;10.33;;;6.33;;
9138;SDS011;4604;48.616;9.548;2023-04-07T02:06:39;9.47;;;6.33;;
9138;SDS011;4604;48.616;9.548;2023-04-07T02:09:09;9.53;;;6.33;;
9138;SDS011;4604;48.616;9.548;2023-04-07T02:11:38;10.63;;;6.17;;
9138;SDS011;4604;48.616;9.548;2023-04-07T02:14:07;10.00;;;6.33;;
9138;SDS011;4604;48.616;9.548;2023-04-07T02:16:35;12.83;;;6.80;;
9138;SDS011;4604;48.616;9.548;2023-04-07T02:19:02;10.47;;;6.83;;
9138;SDS011;4604;48.616;9.548;2023-04-07T02:21:32;12.50;;;6.80;;
9138;SDS011;4604;48.616;9.548;2023-04-07T02:24:00;11.70;;;6.90;;
9138;SDS011;4604;48.616;9.548;2023-04-07T02:26:28;10.73;;;6.47;;
9138;SDS011;4604;48.616;9.548;2023-04-07T02:28:59;10.80;;;6.90;;
9138;SDS011;4604;48.616;9.548;2023-04-07T02:31:26;9.33;;;6.53;;
9138;SDS011;4604;48.616;9.548;2023-04-07T02:33:53;11.97;;;7.20;;
9138;SDS011;4604;48.616;9.548;2023-04-07T02:36:19;9.93;;;6.40;;
9138;SDS011;4604;48.616;9.548;2023-04-07T02:38:49;13.60;;;6.90;;
9138;SDS011;4604;48.616;9.548;2023-04-07T02:41:15;10.17;;;6.57;;
9138;SDS011;4604;48.616;9.548;2023-04-07T02:43:42;10.07;;;6.57;;
9138;SDS011;4604;48.616;9.548;2023-04-07T02:46:08;10.27;;;6.43;;
9138;SDS011;4604;48.616;9.548;2023-04-07T02:48:35;11.17;;;7.00;;
9138;SDS011;4604;48.616;9.548;2023-04-07T02:51:02;10.17;;;6.60;;
9138;SDS011;4604;48.616;9.548;2023-04-07T02:53:29;10.67;;;6.67;;
9138;SDS011;4604;48.616;9.548;2023-04-07T02:55:57;11.43;;;7.03;;
9138;SDS011;4604;48.616;9.548;2023-04-07T02:58:24;11.27;;;7.07;;
9138;SDS011;4604;48.616;9.548;2023-04-07T03:00:50;10.57;;;6.80;;
9138;SDS011;4604;48.616;9.548;2023-04-07T03:03:17;10.20;;;6.60;;
9138;SDS011;4604;48.616;9.548;2023-04-07T03:05:44;11.80;;;7.17;;
9138;SDS011;4604;48.616;9.548;2023-04-07T03:08:10;11.13;;;7.40;;
9138;SDS011;4604;48.616;9.548;2023-04-07T03:10:37;12.30;;;7.23;;
9138;SDS011;4604;48.616;9.548;2023-04-07T03:13:05;12.43;;;6.70;;
9138;SDS011;4604;48.616;9.548;2023-04-07T03:15:32;11.97;;;7.00;;
9138;SDS011;4604;48.616;9.548;2023-04-07T03:17:59;11.83;;;6.73;;
9138;SDS011;4604;48.616;9.548;2023-04-07T03:20:26;11.93;;;7.07;;
9138;SDS011;4604;48.616;9.548;2023-04-07T03:22:52;11.40;;;6.57;;
9138;SDS011;4604;48.616;9.548;2023-04-07T03:25:19;9.37;;;6.17;;
9138;SDS011;4604;48.616;9.548;2023-04-07T03:27:46;12.03;;;6.70;;
9138;SDS011;4604;48.616;9.548;2023-04-07T03:30:14;9.80;;;6.23;;
9138;SDS011;4604;48.616;9.548;2023-04-07T03:32:40;10.03;;;6.50;;
9138;SDS011;4604;48.616;9.548;2023-04-07T03:35:07;11.10;;;6.60;;
9138;SDS011;4604;48.616;9.548;2023-04-07T03:37:34;9.33;;;6.77;;
9138;SDS011;4604;48.616;9.548;2023-04-07T03:40:01;10.30;;;6.40;;
9138;SDS011;4604;48.616;9.548;2023-04-07T03:42:28;10.93;;;6.47;;
9138;SDS011;4604;48.616;9.548;2023-04-07T03:44:54;9.37;;;6.67;;
9138;SDS011;4604;48.616;9.548;2023-04-07T03:47:22;10.07;;;6.27;;
9138;SDS011;4604;48.616;9.548;2023-04-07T03:49:49;10.93;;;6.80;;
9138;SDS011;4604;48.616;9.548;2023-04-07T03:52:16;10.50;;;6.17;;
9138;SDS011;4604;48.616;9.548;2023-04-07T03:54:42;9.97;;;6.27;;
9138;SDS011;4604;48.616;9.548;2023-04-07T03:57:09;9.07;;;6.00;;
9138;SDS011;4604;48.616;9.548;2023-04-07T03:59:36;12.20;;;6.57;;
9138;SDS011;4604;48.616;9.548;2023-04-07T04:02:02;11.27;;;6.43;;
9138;SDS011;4604;48.616;9.548;2023-04-07T04:04:30;9.33;;;5.93;;
9138;SDS011;4604;48.616;9.548;2023-04-07T04:06:57;10.23;;;6.10;;
9138;SDS011;4604;48.616;9.548;2023-04-07T04:09:24;9.87;;;6.43;;
9138;SDS011;4604;48.616;9.548;2023-04-07T04:11:50;10.37;;;6.57;;
9138;SDS011;4604;48.616;9.548;2023-04-07T04:14:17;10.80;;;6.30;;
9138;SDS011;4604;48.616;9.548;2023-04-07T04:16:44;12.07;;;6.67;;
9138;SDS011;4604;48.616;9.548;2023-04-07T04:19:10;9.00;;;6.10;;
9138;SDS011;4604;48.616;9.548;2023-04-07T04:21:38;12.07;;;6.23;;
9138;SDS011;4604;48.616;9.548;2023-04-07T04:24:05;9.20;;;6.13;;
9138;SDS011;4604;48.616;9.548;2023-04-07T04:26:31;11.37;;;6.70;;
9138;SDS011;4604;48.616;9.548;2023-04-07T04:28:58;9.67;;;6.27;;
9138;SDS011;4604;48.616;9.548;2023-04-07T04:31:26;8.33;;;5.73;;
9138;SDS011;4604;48.616;9.548;2023-04-07T04:33:53;10.37;;;5.80;;
9138;SDS011;4604;48.616;9.548;2023-04-07T04:36:20;10.43;;;6.90;;
9138;SDS011;4604;48.616;9.548;2023-04-07T04:38:48;14.17;;;7.30;;
9138;SDS011;4604;48.616;9.548;2023-04-07T04:41:14;8.80;;;6.30;;
9138;SDS011;4604;48.616;9.548;2023-04-07T04:43:41;10.07;;;6.43;;
9138;SDS011;4604;48.616;9.548;2023-04-07T04:46:07;11.83;;;6.80;;
9138;SDS011;4604;48.616;9.548;2023-04-07T04:48:37;11.03;;;6.57;;
9138;SDS011;4604;48.616;9.548;2023-04-07T04:51:03;12.23;;;7.00;;
9138;SDS011;4604;48.616;9.548;2023-04-07T04:53:30;9.40;;;6.00;;
9138;SDS011;4604;48.616;9.548;2023-04-07T04:55:58;11.07;;;6.23;;
9138;SDS011;4604;48.616;9.548;2023-04-07T04:58:25;11.10;;;6.77;;
9138;SDS011;4604;48.616;9.548;2023-04-07T05:00:52;10.90;;;6.47;;
9138;SDS011;4604;48.616;9.548;2023-04-07T05:03:22;10.23;;;6.60;;
9138;SDS011;4604;48.616;9.548;2023-04-07T05:05:49;9.50;;;6.00;;
9138;SDS011;4604;48.616;9.548;2023-04-07T05:08:15;10.77;;;6.70;;
9138;SDS011;4604;48.616;9.548;2023-04-07T05:10:42;9.50;;;5.67;;
9138;SDS011;4604;48.616;9.548;2023-04-07T05:13:10;11.77;;;7.07;;
9138;SDS011;4604;48.616;9.548;2023-04-07T05:15:36;13.70;;;7.40;;
9138;SDS011;4604;48.616;9.548;2023-04-07T05:18:03;10.30;;;6.10;;
9138;SDS011;4604;48.616;9.548;2023-04-07T05:20:30;8.47;;;5.97;;
9138;SDS011;4604;48.616;9.548;2023-04-07T05:22:56;10.50;;;7.13;;
9138;SDS011;4604;48.616;9.548;2023-04-07T05:25:23;10.73;;;6.40;;
9138;SDS011;4604;48.616;9.548;2023-04-07T05:27:50;9.83;;;6.20;;
9138;SDS011;4604;48.616;9.548;2023-04-07T05:30:18;10.83;;;6.20;;
9138;SDS011;4604;48.616;9.548;2023-04-07T05:32:44;10.53;;;6.47;;
9138;SDS011;4604;48.616;9.548;2023-04-07T05:35:11;12.60;;;6.73;;
9138;SDS011;4604;48.616;9.548;2023-04-07T05:37:38;12.73;;;6.80;;
9138;SDS011;4604;48.616;9.548;2023-04-07T05:40:05;10.60;;;6.60;;
9138;SDS011;4604;48.616;9.548;2023-04-07T05:42:32;9.63;;;6.10;;
9138;SDS011;4604;48.616;9.548;2023-04-07T05:44:59;9.73;;;6.07;;
9138;SDS011;4604;48.616;9.548;2023-04-07T05:47:27;9.00;;;5.90;;
9138;SDS011;4604;48.616;9.548;2023-04-07T05:49:54;9.60;;;6.33;;
9138;SDS011;4604;48.616;9.548;2023-04-07T05:52:20;9.27;;;6.20;;
9138;SDS011;4604;48.616;9.548;2023-04-07T05:54:47;6.90;;;5.60;;
9138;SDS011;4604;48.616;9.548;2023-04-07T05:57:14;9.90;;;5.80;;
9138;SDS011;4604;48.616;9.548;2023-04-07T05:59:40;8.80;;;5.73;;
9138;SDS011;4604;48.616;9.548;2023-04-07T06:02:07;9.47;;;5.77;;
9138;SDS011;4604;48.616;9.548;2023-04-07T06:04:35;10.10;;;6.57;;
9138;SDS011;4604;48.616;9.548;2023-04-07T06:07:03;10.10;;;6.67;;
9138;SDS011;4604;48.616;9.548;2023-04-07T06:09:30;11.47;;;6.40;;
9138;SDS011;4604;48.616;9.548;2023-04-07T06:11:56;8.07;;;5.90;;
9138;SDS011;4604;48.616;9.548;2023-04-07T06:14:23;10.13;;;6.33;;
9138;SDS011;4604;48.616;9.548;2023-04-07T06:16:50;11.80;;;6.10;;
9138;SDS011;4604;48.616;9.548;2023-04-07T06:19:17;9.03;;;6.40;;
9138;SDS011;4604;48.616;9.548;2023-04-07T06:21:45;9.13;;;6.33;;
9138;SDS011;4604;48.616;9.548;2023-04-07T06:24:11;8.60;;;6.00;;
9138;SDS011;4604;48.616;9.548;2023-04-07T06:26:38;6.03;;;4.73;;
9138;SDS011;4604;48.616;9.548;2023-04-07T06:29:05;7.40;;;4.67;;
9138;SDS011;4604;48.616;9.548;2023-04-07T06:31:32;10.67;;;5.67;;
9138;SDS011;4604;48.616;9.548;2023-04-07T06:33:58;11.90;;;6.47;;
9138;SDS011;4604;48.616;9.548;2023-04-07T06:36:26;8.73;;;6.40;;
9138;SDS011;4604;48.616;9.548;2023-04-07T06:38:54;9.63;;;6.10;;
9138;SDS011;4604;48.616;9.548;2023-04-07T06:41:21;9.83;;;6.37;;
9138;SDS011;4604;48.616;9.548;2023-04-07T06:43:48;8.97;;;5.53;;
9138;SDS011;4604;48.616;9.548;2023-04-07T06:46:16;10.30;;;6.57;;
9138;SDS011;4604;48.616;9.548;2023-04-07T06:48:42;12.57;;;7.67;;
9138;SDS011;4604;48.616;9.548;2023-04-07T06:51:09;13.63;;;8.63;;
9138;SDS011;4604;48.616;9.548;2023-04-07T06:53:36;14.37;;;8.27;;
9138;SDS011;4604;48.616;9.548;2023-04-07T06:56:04;13.37;;;7.67;;
9138;SDS011;4604;48.616;9.548;2023-04-07T06:58:32;11.00;;;7.17;;
9138;SDS011;4604;48.616;9.548;2023-04-07T07:00:59;11.73;;;7.13;;
9138;SDS011;4604;48.616;9.548;2023-04-07T07:03:25;14.80;;;8.50;;
9138;SDS011;4604;48.616;9.548;2023-04-07T07:05:53;13.07;;;8.90;;
9138;SDS011;4604;48.616;9.548;2023-04-07T07:08:20;10.37;;;7.33;;
9138;SDS011;4604;48.616;9.548;2023-04-07T07:10:47;9.23;;;6.30;;
9138;SDS011;4604;48.616;9.548;2023-04-07T07:13:15;11.67;;;7.50;;
9138;SDS011;4604;48.616;9.548;2023-04-07T07:15:42;11.43;;;7.63;;
9138;SDS011;4604;48.616;9.548;2023-04-07T07:18:08;13.87;;;9.00;;
9138;SDS011;4604;48.616;9.548;2023-04-07T07:20:35;9.83;;;6.80;;
9138;SDS011;4604;48.616;9.548;2023-04-07T07:23:01;10.83;;;7.00;;
9138;SDS011;4604;48.616;9.548;2023-04-07T07:25:28;11.53;;;7.47;;
9138;SDS011;4604;48.616;9.548;2023-04-07T07:27:55;11.50;;;7.40;;
9138;SDS011;4604;48.616;9.548;2023-04-07T07:30:23;8.07;;;6.13;;
9138;SDS011;4604;48.616;9.548;2023-04-07T07:32:50;10.03;;;6.60;;
9138;SDS011;4604;48.616;9.548;2023-04-07T07:35:17;10.30;;;6.17;;
9138;SDS011;4604;48.616;9.548;2023-04-07T07:37:44;8.70;;;5.73;;
9138;SDS011;4604;48.616;9.548;2023-04-07T07:40:11;7.40;;;5.23;;
9138;SDS011;4604;48.616;9.548;2023-04-07T07:42:38;8.40;;;5.23;;
9138;SDS011;4604;48.616;9.548;2023-04-07T07:45:05;9.03;;;5.23;;
9138;SDS011;4604;48.616;9.548;2023-04-07T07:47:33;7.17;;;5.03;;
9138;SDS011;4604;48.616;9.548;2023-04-07T07:50:01;6.20;;;4.90;;
9138;SDS011;4604;48.616;9.548;2023-04-07T07:52:28;7.13;;;4.93;;
9138;SDS011;4604;48.616;9.548;2023-04-07T07:54:55;6.27;;;4.80;;
9138;SDS011;4604;48.616;9.548;2023-04-07T07:57:22;7.20;;;4.83;;
9138;SDS011;4604;48.616;9.548;2023-04-07T07:59:49;7.20;;;5.00;;
9138;SDS011;4604;48.616;9.548;2023-04-07T08:02:16;6.40;;;5.27;;
9138;SDS011;4604;48.616;9.548;2023-04-07T08:04:43;9.77;;;5.30;;
9138;SDS011;4604;48.616;9.548;2023-04-07T08:07:10;8.27;;;5.83;;
9138;SDS011;4604;48.616;9.548;2023-04-07T08:09:37;7.73;;;5.50;;
9138;SDS011;4604;48.616;9.548;2023-04-07T08:12:03;6.67;;;5.10;;
9138;SDS011;4604;48.616;9.548;2023-04-07T08:14:30;6.73;;;4.60;;
9138;SDS011;4604;48.616;9.548;2023-04-07T08:16:57;5.63;;;4.27;;
9138;SDS011;4604;48.616;9.548;2023-04-07T08:19:23;6.53;;;5.17;;
9138;SDS011;4604;48.616;9.548;2023-04-07T08:21:52;8.50;;;5.27;;
9138;SDS011;4604;48.616;9.548;2023-04-07T08:24:18;7.57;;;5.43;;
9138;SDS011;4604;48.616;9.548;2023-04-07T08:26:45;7.40;;;5.47;;
9138;SDS011;4604;48.616;9.548;2023-04-07T08:29:11;10.47;;;5.53;;
9138;SDS011;4604;48.616;9.548;2023-04-07T08:31:38;8.53;;;5.03;;
9138;SDS011;4604;48.616;9.548;2023-04-07T08:34:05;7.67;;;5.23;;
9138;SDS011;4604;48.616;9.548;2023-04-07T08:36:32;8.23;;;5.17;;
9138;SDS011;4604;48.616;9.548;2023-04-07T08:39:00;6.20;;;4.97;;
9138;SDS011;4604;48.616;9.548;2023-04-07T08:41:33;7.87;;;5.10;;
9138;SDS011;4604;48.616;9.548;2023-04-07T08:44:02;6.73;;;5.00;;
9138;SDS011;4604;48.616;9.548;2023-04-07T08:46:29;7.33;;;4.60;;
9138;SDS011;4604;48.616;9.548;2023-04-07T08:48:58;6.37;;;4.97;;
9138;SDS011;4604;48.616;9.548;2023-04-07T08:51:27;5.93;;;4.57;;
9138;SDS011;4604;48.616;9.548;2023-04-07T08:53:59;7.67;;;5.13;;
9138;SDS011;4604;48.616;9.548;2023-04-07T08:56:32;6.50;;;4.87;;
9138;SDS011;4604;48.616;9.548;2023-04-07T08:58:59;6.63;;;4.80;;
9138;SDS011;4604;48.616;9.548;2023-04-07T09:01:26;6.27;;;4.53;;
9138;SDS011;4604;48.616;9.548;2023-04-07T09:03:55;7.93;;;4.70;;
9138;SDS011;4604;48.616;9.548;2023-04-07T09:06:22;8.33;;;4.70;;
9138;SDS011;4604;48.616;9.548;2023-04-07T09:08:49;6.80;;;5.00;;
9138;SDS011;4604;48.616;9.548;2023-04-07T09:11:17;7.87;;;5.03;;
9138;SDS011;4604;48.616;9.548;2023-04-07T09:13:44;6.40;;;5.10;;
9138;SDS011;4604;48.616;9.548;2023-04-07T09:16:11;5.90;;;4.67;;
9138;SDS011;4604;48.616;9.548;2023-04-07T09:18:38;6.53;;;5.13;;
9138;SDS011;4604;48.616;9.548;2023-04-07T09:21:06;6.53;;;4.87;;
9138;SDS011;4604;48.616;9.548;2023-04-07T09:23:35;9.40;;;5.40;;
9138;SDS011;4604;48.616;9.548;2023-04-07T09:28:47;6.27;;;4.57;;
9138;SDS011;4604;48.616;9.548;2023-04-07T09:31:15;8.83;;;4.97;;
9138;SDS011;4604;48.616;9.548;2023-04-07T09:33:42;6.00;;;4.33;;
9138;SDS011;4604;48.616;9.548;2023-04-07T09:36:09;6.97;;;4.53;;
9138;SDS011;4604;48.616;9.548;2023-04-07T09:38:36;13.30;;;5.10;;
9138;SDS011;4604;48.616;9.548;2023-04-07T09:41:05;6.97;;;5.00;;
9138;SDS011;4604;48.616;9.548;2023-04-07T09:43:35;6.90;;;5.03;;
9138;SDS011;4604;48.616;9.548;2023-04-07T09:46:06;8.20;;;5.00;;
9138;SDS011;4604;48.616;9.548;2023-04-07T09:48:37;7.83;;;4.77;;
9138;SDS011;4604;48.616;9.548;2023-04-07T09:51:04;7.40;;;5.15;;
9138;SDS011;4604;48.616;9.548;2023-04-07T09:53:43;6.40;;;5.20;;
9138;SDS011;4604;48.616;9.548;2023-04-07T09:56:12;9.03;;;4.60;;
9138;SDS011;4604;48.616;9.548;2023-04-07T09:58:43;8.40;;;4.67;;
9138;SDS011;4604;48.616;9.548;2023-04-07T10:01:11;6.77;;;4.57;;
9138;SDS011;4604;48.616;9.548;2023-04-07T10:03:40;7.37;;;4.90;;
9138;SDS011;4604;48.616;9.548;2023-04-07T10:06:07;7.43;;;4.60;;
9138;SDS011;4604;48.616;9.548;2023-04-07T10:08:34;6.20;;;4.73;;
9138;SDS011;4604;48.616;9.548;2023-04-07T10:11:03;8.00;;;4.77;;
9138;SDS011;4604;48.616;9.548;2023-04-07T10:13:31;7.50;;;5.03;;
9138;SDS011;4604;48.616;9.548;2023-04-07T10:16:01;7.17;;;4.93;;
9138;SDS011;4604;48.616;9.548;2023-04-07T10:18:32;9.13;;;5.10;;
9138;SDS011;4604;48.616;9.548;2023-04-07T10:21:00;8.90;;;5.13;;
9138;SDS011;4604;48.616;9.548;2023-04-07T10:23:31;6.80;;;4.80;;
9138;SDS011;4604;48.616;9.548;2023-04-07T10:26:05;8.27;;;4.70;;
9138;SDS011;4604;48.616;9.548;2023-04-07T10:28:32;6.80;;;4.70;;
9138;SDS011;4604;48.616;9.548;2023-04-07T10:31:06;6.67;;;4.70;;
9138;SDS011;4604;48.616;9.548;2023-04-07T10:33:43;6.57;;;4.53;;
9138;SDS011;4604;48.616;9.548;2023-04-07T10:36:10;6.43;;;4.50;;
9138;SDS011;4604;48.616;9.548;2023-04-07T10:38:37;5.23;;;4.37;;
9138;SDS011;4604;48.616;9.548;2023-04-07T10:43:58;6.20;;;4.70;;
9138;SDS011;4604;48.616;9.548;2023-04-07T10:46:37;6.07;;;4.37;;
9138;SDS011;4604;48.616;9.548;2023-04-07T10:49:30;9.37;;;4.30;;
9138;SDS011;4604;48.616;9.548;2023-04-07T10:54:48;8.67;;;4.47;;
9138;SDS011;4604;48.616;9.548;2023-04-07T10:58:12;7.03;;;4.33;;
9138;SDS011;4604;48.616;9.548;2023-04-07T11:01:15;7.03;;;4.73;;
9138;SDS011;4604;48.616;9.548;2023-04-07T11:03:55;9.57;;;5.00;;
9138;SDS011;4604;48.616;9.548;2023-04-07T11:06:23;6.37;;;4.50;;
9138;SDS011;4604;48.616;9.548;2023-04-07T11:08:51;8.10;;;4.27;;
9138;SDS011;4604;48.616;9.548;2023-04-07T11:11:19;6.57;;;4.90;;
9138;SDS011;4604;48.616;9.548;2023-04-07T11:14:00;6.60;;;5.07;;
9138;SDS011;4604;48.616;9.548;2023-04-07T11:16:33;10.57;;;5.63;;
9138;SDS011;4604;48.616;9.548;2023-04-07T11:19:05;6.90;;;4.40;;
9138;SDS011;4604;48.616;9.548;2023-04-07T11:21:32;6.67;;;4.13;;
9138;SDS011;4604;48.616;9.548;2023-04-07T11:24:00;7.07;;;4.18;;
9138;SDS011;4604;48.616;9.548;2023-04-07T11:26:27;6.43;;;4.30;;
9138;SDS011;4604;48.616;9.548;2023-04-07T11:28:55;6.13;;;4.93;;
9138;SDS011;4604;48.616;9.548;2023-04-07T11:31:23;8.60;;;5.40;;
9138;SDS011;4604;48.616;9.548;2023-04-07T11:33:51;8.57;;;4.93;;
9138;SDS011;4604;48.616;9.548;2023-04-07T11:36:26;9.10;;;4.97;;
9138;SDS011;4604;48.616;9.548;2023-04-07T11:38:54;7.97;;;4.72;;
9138;SDS011;4604;48.616;9.548;2023-04-07T11:41:21;7.83;;;5.20;;
9138;SDS011;4604;48.616;9.548;2023-04-07T11:43:49;6.00;;;4.50;;
9138;SDS011;4604;48.616;9.548;2023-04-07T11:46:29;7.07;;;5.00;;
9138;SDS011;4604;48.616;9.548;2023-04-07T11:49:06;6.60;;;4.63;;
9138;SDS011;4604;48.616;9.548;2023-04-07T11:51:35;6.37;;;4.63;;
9138;SDS011;4604;48.616;9.548;2023-04-07T11:54:02;8.77;;;4.87;;
9138;SDS011;4604;48.616;9.548;2023-04-07T11:56:29;7.87;;;4.83;;
9138;SDS011;4604;48.616;9.548;2023-04-07T11:58:55;6.47;;;4.47;;
9138;SDS011;4604;48.616;9.548;2023-04-07T12:01:23;5.93;;;4.43;;
9138;SDS011;4604;48.616;9.548;2023-04-07T12:04:04;5.97;;;4.50;;
9138;SDS011;4604;48.616;9.548;2023-04-07T12:06:31;8.60;;;5.43;;
9138;SDS011;4604;48.616;9.548;2023-04-07T12:09:01;7.93;;;5.37;;
9138;SDS011;4604;48.616;9.548;2023-04-07T12:11:28;7.43;;;4.90;;
9138;SDS011;4604;48.616;9.548;2023-04-07T12:13:55;6.47;;;4.70;;
9138;SDS011;4604;48.616;9.548;2023-04-07T12:16:22;6.70;;;4.17;;
9138;SDS011;4604;48.616;9.548;2023-04-07T12:18:48;5.97;;;4.72;;
9138;SDS011;4604;48.616;9.548;2023-04-07T12:21:15;6.67;;;4.53;;
9138;SDS011;4604;48.616;9.548;2023-04-07T12:23:43;9.83;;;4.77;;
9138;SDS011;4604;48.616;9.548;2023-04-07T12:26:13;6.47;;;4.37;;
9138;SDS011;4604;48.616;9.548;2023-04-07T12:28:39;7.10;;;4.93;;
9138;SDS011;4604;48.616;9.548;2023-04-07T12:31:06;9.68;;;4.88;;
9138;SDS011;4604;48.616;9.548;2023-04-07T12:33:32;6.73;;;4.63;;
9138;SDS011;4604;48.616;9.548;2023-04-07T12:35:59;11.07;;;5.30;;
9138;SDS011;4604;48.616;9.548;2023-04-07T12:38:26;6.00;;;4.68;;
9138;SDS011;4604;48.616;9.548;2023-04-07T12:40:52;5.70;;;3.87;;
9138;SDS011;4604;48.616;9.548;2023-04-07T12:43:20;5.30;;;3.93;;
9138;SDS011;4604;48.616;9.548;2023-04-07T12:45:47;5.50;;;4.22;;
9138;SDS011;4604;48.616;9.548;2023-04-07T12:48:14;6.27;;;4.47;;
9138;SDS011;4604;48.616;9.548;2023-04-07T12:50:42;8.00;;;4.03;;
9138;SDS011;4604;48.616;9.548;2023-04-07T12:53:09;6.40;;;3.83;;
9138;SDS011;4604;48.616;9.548;2023-04-07T12:55:36;6.00;;;4.07;;
9138;SDS011;4604;48.616;9.548;2023-04-07T12:58:02;6.27;;;3.70;;
9138;SDS011;4604;48.616;9.548;2023-04-07T13:00:31;5.10;;;4.05;;
9138;SDS011;4604;48.616;9.548;2023-04-07T13:02:57;5.77;;;3.67;;
9138;SDS011;4604;48.616;9.548;2023-04-07T13:05:24;4.63;;;3.67;;
9138;SDS011;4604;48.616;9.548;2023-04-07T13:07:51;5.97;;;3.40;;
9138;SDS011;4604;48.616;9.548;2023-04-07T13:10:18;5.37;;;3.80;;
9138;SDS011;4604;48.616;9.548;2023-04-07T13:12:45;5.17;;;3.80;;
9138;SDS011;4604;48.616;9.548;2023-04-07T13:15:12;6.57;;;4.10;;
9138;SDS011;4604;48.616;9.548;2023-04-07T13:17:40;5.87;;;4.00;;
9138;SDS011;4604;48.616;9.548;2023-04-07T13:20:06;5.83;;;3.60;;
9138;SDS011;4604;48.616;9.548;2023-04-07T13:22:33;5.20;;;3.90;;
9138;SDS011;4604;48.616;9.548;2023-04-07T13:25:00;6.57;;;4.45;;
9138;SDS011;4604;48.616;9.548;2023-04-07T13:27:27;5.80;;;3.80;;
9138;SDS011;4604;48.616;9.548;2023-04-07T13:29:53;5.27;;;3.33;;
9138;SDS011;4604;48.616;9.548;2023-04-07T13:32:20;5.77;;;3.50;;
9138;SDS011;4604;48.616;9.548;2023-04-07T13:34:48;7.43;;;3.95;;
9138;SDS011;4604;48.616;9.548;2023-04-07T13:37:16;4.30;;;3.00;;
9138;SDS011;4604;48.616;9.548;2023-04-07T13:39:44;4.77;;;3.20;;
9138;SDS011;4604;48.616;9.548;2023-04-07T13:42:12;4.33;;;3.27;;
9138;SDS011;4604;48.616;9.548;2023-04-07T13:44:40;6.27;;;4.03;;
9138;SDS011;4604;48.616;9.548;2023-04-07T13:47:09;5.60;;;3.80;;
9138;SDS011;4604;48.616;9.548;2023-04-07T13:49:36;7.63;;;4.27;;
9138;SDS011;4604;48.616;9.548;2023-04-07T13:52:04;9.03;;;4.83;;
9138;SDS011;4604;48.616;9.548;2023-04-07T13:54:30;6.77;;;4.67;;
9138;SDS011;4604;48.616;9.548;2023-04-07T13:56:57;7.60;;;5.40;;
9138;SDS011;4604;48.616;9.548;2023-04-07T13:59:24;11.70;;;5.93;;
9138;SDS011;4604;48.616;9.548;2023-04-07T14:01:50;7.60;;;5.80;;
9138;SDS011;4604;48.616;9.548;2023-04-07T14:04:17;10.90;;;5.70;;
9138;SDS011;4604;48.616;9.548;2023-04-07T14:06:43;9.03;;;5.20;;
9138;SDS011;4604;48.616;9.548;2023-04-07T14:09:11;7.70;;;5.63;;
9138;SDS011;4604;48.616;9.548;2023-04-07T14:11:38;6.33;;;5.23;;
9138;SDS011;4604;48.616;9.548;2023-04-07T14:14:05;8.10;;;5.30;;
9138;SDS011;4604;48.616;9.548;2023-04-07T14:16:32;6.30;;;5.07;;
9138;SDS011;4604;48.616;9.548;2023-04-07T14:18:58;11.03;;;5.37;;
9138;SDS011;4604;48.616;9.548;2023-04-07T14:21:25;6.53;;;5.30;;
9138;SDS011;4604;48.616;9.548;2023-04-07T14:23:52;9.47;;;5.30;;
9138;SDS011;4604;48.616;9.548;2023-04-07T14:26:20;8.47;;;5.30;;
9138;SDS011;4604;48.616;9.548;2023-04-07T14:28:47;6.63;;;4.80;;
9138;SDS011;4604;48.616;9.548;2023-04-07T14:31:14;7.77;;;5.03;;
9138;SDS011;4604;48.616;9.548;2023-04-07T14:33:41;9.10;;;4.87;;
9138;SDS011;4604;48.616;9.548;2023-04-07T14:36:08;8.27;;;5.50;;
9138;SDS011;4604;48.616;9.548;2023-04-07T14:38:35;10.10;;;5.60;;
9138;SDS011;4604;48.616;9.548;2023-04-07T14:41:01;10.40;;;5.83;;
9138;SDS011;4604;48.616;9.548;2023-04-07T14:43:29;9.83;;;6.33;;
9138;SDS011;4604;48.616;9.548;2023-04-07T14:45:56;7.90;;;5.60;;
9138;SDS011;4604;48.616;9.548;2023-04-07T14:48:23;7.90;;;5.80;;
9138;SDS011;4604;48.616;9.548;2023-04-07T14:50:50;8.23;;;5.33;;
9138;SDS011;4604;48.616;9.548;2023-04-07T14:53:17;9.03;;;6.20;;
9138;SDS011;4604;48.616;9.548;2023-04-07T14:55:43;7.20;;;5.10;;
9138;SDS011;4604;48.616;9.548;2023-04-07T14:58:10;7.30;;;5.43;;
9138;SDS011;4604;48.616;9.548;2023-04-07T15:00:38;12.67;;;5.63;;
9138;SDS011;4604;48.616;9.548;2023-04-07T15:03:05;8.30;;;5.77;;
9138;SDS011;4604;48.616;9.548;2023-04-07T15:05:31;6.77;;;4.97;;
9138;SDS011;4604;48.616;9.548;2023-04-07T15:07:58;7.33;;;5.17;;
9138;SDS011;4604;48.616;9.548;2023-04-07T15:10:25;6.90;;;4.90;;
9138;SDS011;4604;48.616;9.548;2023-04-07T15:12:51;5.50;;;4.50;;
9138;SDS011;4604;48.616;9.548;2023-04-07T15:15:18;7.67;;;4.50;;
9138;SDS011;4604;48.616;9.548;2023-04-07T15:17:46;5.47;;;4.10;;
9138;SDS011;4604;48.616;9.548;2023-04-07T15:20:13;5.13;;;4.43;;
9138;SDS011;4604;48.616;9.548;2023-04-07T15:22:39;6.77;;;4.90;;
9138;SDS011;4604;48.616;9.548;2023-04-07T15:25:06;7.03;;;5.13;;
9138;SDS011;4604;48.616;9.548;2023-04-07T15:27:33;6.67;;;5.20;;